createdAt,value
2023-04-02T00:00:33.121Z,18
2023-04-02T00:01:39.913Z,19
2023-04-02T00:02:46.652Z,19
2023-04-02T00:03:58.569Z,20
2023-04-02T00:05:07.969Z,17
2023-04-02T00:06:17.408Z,21
2023-04-02T00:07:29.386Z,20
2023-04-02T00:08:36.214Z,20
2023-04-02T00:09:42.985Z,18
2023-04-02T00:10:49.739Z,20
2023-04-02T00:11:59.314Z,19
2023-04-02T00:13:14.290Z,20
2023-04-02T00:14:21.108Z,20
2023-04-02T00:15:27.910Z,20
2023-04-02T00:16:34.844Z,21
2023-04-02T00:17:41.707Z,19
2023-04-02T00:18:48.473Z,21
2023-04-02T00:19:55.208Z,20
2023-04-02T00:21:02.047Z,21
2023-04-02T00:22:18.993Z,18
2023-04-02T00:23:28.594Z,19
2023-04-02T00:24:35.359Z,18
2023-04-02T00:25:42.087Z,17
2023-04-02T00:26:48.866Z,18
2023-04-02T00:27:55.701Z,17
2023-04-02T00:29:02.534Z,18
2023-04-02T00:30:09.334Z,16
2023-04-02T00:31:16.414Z,15
2023-04-02T00:32:23.255Z,17
2023-04-02T00:33:35.093Z,17
2023-04-02T00:34:41.903Z,15
2023-04-02T00:35:48.820Z,16
2023-04-02T00:36:55.655Z,16
2023-04-02T00:38:02.756Z,15
2023-04-02T00:39:09.715Z,14
2023-04-02T00:40:21.540Z,15
2023-04-02T00:41:28.362Z,15
2023-04-02T00:42:35.199Z,15
2023-04-02T00:43:42.056Z,14
2023-04-02T00:44:48.968Z,15
2023-04-02T00:45:55.899Z,15
2023-04-02T00:47:05.302Z,16
2023-04-02T00:48:22.216Z,16
2023-04-02T00:49:34.775Z,17
2023-04-02T00:50:41.559Z,14
2023-04-02T00:51:48.489Z,15
2023-04-02T00:52:57.970Z,15
2023-04-02T00:54:04.684Z,15
2023-04-02T00:55:11.496Z,15
2023-04-02T00:56:23.341Z,14
2023-04-02T00:57:35.316Z,16
2023-04-02T00:58:42.048Z,15
2023-04-02T00:59:48.998Z,14
2023-04-02T01:01:01.672Z,14
2023-04-02T01:02:08.449Z,15
2023-04-02T01:03:18.237Z,14
2023-04-02T01:04:27.702Z,14
2023-04-02T01:05:37.585Z,14
2023-04-02T01:06:44.179Z,15
2023-04-02T01:07:50.956Z,14
2023-04-02T01:09:05.587Z,15
2023-04-02T01:10:22.492Z,14
2023-04-02T01:11:34.311Z,15
2023-04-02T01:12:46.175Z,15
2023-04-02T01:13:58.024Z,15
2023-04-02T01:15:12.826Z,15
2023-04-02T01:16:24.751Z,14
2023-04-02T01:17:34.591Z,16
2023-04-02T01:18:46.474Z,16
2023-04-02T01:20:01.032Z,16
2023-04-02T01:21:15.591Z,15
2023-04-02T01:22:28.357Z,17
2023-04-02T01:23:35.258Z,18
2023-04-02T01:24:50.083Z,18
2023-04-02T01:25:56.843Z,18
2023-04-02T01:27:11.778Z,17
2023-04-02T01:28:24.503Z,17
2023-04-02T01:29:31.305Z,17
2023-04-02T01:30:40.559Z,17
2023-04-02T01:31:47.333Z,17
2023-04-02T01:32:54.170Z,17
2023-04-02T01:34:01.006Z,16
2023-04-02T01:35:07.794Z,15
2023-04-02T01:36:14.536Z,14
2023-04-02T01:37:21.310Z,16
2023-04-02T01:38:31.010Z,15
2023-04-02T01:39:37.788Z,16
2023-04-02T01:40:54.728Z,14
2023-04-02T01:42:01.545Z,15
2023-04-02T01:43:16.520Z,15
2023-04-02T01:44:26.166Z,16
2023-04-02T01:45:33.297Z,13
2023-04-02T01:46:39.880Z,13
2023-04-02T01:47:46.637Z,13
2023-04-02T01:48:53.413Z,15
2023-04-02T01:50:00.408Z,14
2023-04-02T01:51:12.259Z,14
2023-04-02T01:52:24.096Z,14
2023-04-02T01:53:38.964Z,14
2023-04-02T01:54:45.810Z,14
2023-04-02T01:55:52.557Z,14
2023-04-02T01:56:59.395Z,15
2023-04-02T01:58:06.153Z,14
2023-04-02T01:59:12.934Z,14
2023-04-02T02:00:19.840Z,13
2023-04-02T02:01:26.599Z,14
2023-04-02T02:02:36.035Z,13
2023-04-02T02:03:42.747Z,14
2023-04-02T02:04:49.546Z,15
2023-04-02T02:05:56.315Z,14
2023-04-02T02:07:03.112Z,14
2023-04-02T02:08:09.949Z,14
2023-04-02T02:09:21.807Z,14
2023-04-02T02:10:28.598Z,14
2023-04-02T02:11:38.083Z,14
2023-04-02T02:12:44.819Z,15
2023-04-02T02:13:51.629Z,15
2023-04-02T02:15:03.520Z,14
2023-04-02T02:16:10.397Z,15
2023-04-02T02:17:17.169Z,15
2023-04-02T02:18:24.019Z,15
2023-04-02T02:19:30.802Z,15
2023-04-02T02:20:42.590Z,15
2023-04-02T02:21:49.414Z,15
2023-04-02T02:22:56.177Z,15
2023-04-02T02:24:02.942Z,16
2023-04-02T02:25:09.778Z,16
2023-04-02T02:26:16.593Z,15
2023-04-02T02:27:23.320Z,16
2023-04-02T02:28:30.085Z,15
2023-04-02T02:29:36.838Z,16
2023-04-02T02:30:43.704Z,16
2023-04-02T02:31:50.481Z,15
2023-04-02T02:32:57.266Z,17
2023-04-02T02:34:09.116Z,15
2023-04-02T02:35:18.927Z,16
2023-04-02T02:36:28.781Z,15
2023-04-02T02:37:40.603Z,16
2023-04-02T02:38:47.379Z,16
2023-04-02T02:39:59.935Z,15
2023-04-02T02:41:06.687Z,16
2023-04-02T02:42:16.293Z,17
2023-04-02T02:43:30.841Z,15
2023-04-02T02:44:37.634Z,17
2023-04-02T02:45:44.383Z,16
2023-04-02T02:46:51.123Z,16
2023-04-02T02:48:02.947Z,17
2023-04-02T02:49:09.750Z,17
2023-04-02T02:50:19.287Z,16
2023-04-02T02:51:26.124Z,17
2023-04-02T02:52:32.901Z,17
2023-04-02T02:53:41.039Z,17
2023-04-02T02:54:47.913Z,17
2023-04-02T02:55:57.697Z,16
2023-04-02T02:57:04.549Z,17
2023-04-02T02:58:11.342Z,17
2023-04-02T02:59:20.832Z,17
2023-04-02T03:00:27.808Z,17
2023-04-02T03:01:34.653Z,16
2023-04-02T03:02:41.570Z,17
2023-04-02T03:03:48.359Z,17
2023-04-02T03:04:55.046Z,18
2023-04-02T03:06:01.902Z,17
2023-04-02T03:07:08.798Z,18
2023-04-02T03:08:15.545Z,17
2023-04-02T03:09:22.325Z,18
2023-04-02T03:10:29.140Z,18
2023-04-02T03:11:41.125Z,18
2023-04-02T03:12:58.041Z,17
2023-04-02T03:14:12.551Z,17
2023-04-02T03:15:27.162Z,17
2023-04-02T03:16:36.964Z,17
2023-04-02T03:17:43.761Z,17
2023-04-02T03:18:53.320Z,18
2023-04-02T03:20:05.534Z,18
2023-04-02T03:21:22.452Z,19
2023-04-02T03:22:34.359Z,17
2023-04-02T03:23:41.228Z,18
2023-04-02T03:24:58.046Z,17
2023-04-02T03:26:09.964Z,18
2023-04-02T03:27:16.945Z,17
2023-04-02T03:28:23.803Z,19
2023-04-02T03:29:30.555Z,18
2023-04-02T03:30:37.443Z,19
2023-04-02T03:31:49.374Z,20
2023-04-02T03:33:01.166Z,20
2023-04-02T03:34:08.033Z,20
2023-04-02T03:35:14.845Z,21
2023-04-02T03:36:26.760Z,22
2023-04-02T03:37:38.541Z,23
2023-04-02T03:38:45.597Z,23
2023-04-02T03:39:57.405Z,23
2023-04-02T03:41:14.285Z,23
2023-04-02T03:42:29.129Z,23
2023-04-02T03:43:43.776Z,22
2023-04-02T03:44:50.551Z,24
2023-04-02T03:46:00.230Z,22
2023-04-02T03:47:10.065Z,23
2023-04-02T03:48:19.767Z,22
2023-04-02T03:49:29.547Z,23
2023-04-02T03:50:36.296Z,23
2023-04-02T03:51:51.128Z,22
2023-04-02T03:52:57.956Z,23
2023-04-02T03:54:04.842Z,24
2023-04-02T03:55:11.687Z,23
2023-04-02T03:56:18.482Z,24
2023-04-02T03:57:28.328Z,25
2023-04-02T03:58:43.104Z,26
2023-04-02T03:59:49.951Z,28
2023-04-02T04:01:01.933Z,26
2023-04-02T04:02:08.978Z,25
2023-04-02T04:03:23.746Z,25
2023-04-02T04:04:33.381Z,27
2023-04-02T04:05:40.245Z,25
2023-04-02T04:06:47.101Z,24
2023-04-02T04:07:53.912Z,25
2023-04-02T04:09:05.745Z,24
2023-04-02T04:10:12.541Z,23
2023-04-02T04:11:22.093Z,22
2023-04-02T04:12:28.924Z,24
2023-04-02T04:13:35.763Z,24
2023-04-02T04:14:47.674Z,23
2023-04-02T04:15:54.398Z,24
2023-04-02T04:17:01.369Z,21
2023-04-02T04:18:08.224Z,21
2023-04-02T04:19:25.077Z,22
2023-04-02T04:20:31.804Z,21
2023-04-02T04:21:43.644Z,21
2023-04-02T04:22:50.400Z,22
2023-04-02T04:23:57.314Z,21
2023-04-02T04:25:04.127Z,21
2023-04-02T04:26:11.066Z,22
2023-04-02T04:27:20.822Z,21
2023-04-02T04:28:27.611Z,20
2023-04-02T04:29:34.567Z,20
2023-04-02T04:30:51.451Z,20
2023-04-02T04:32:06.291Z,19
2023-04-02T04:33:18.162Z,20
2023-04-02T04:34:25.027Z,19
2023-04-02T04:35:35.059Z,20
2023-04-02T04:36:41.563Z,20
2023-04-02T04:37:54.046Z,19
2023-04-02T04:39:10.963Z,19
2023-04-02T04:40:17.812Z,20
2023-04-02T04:41:32.329Z,18
2023-04-02T04:42:39.181Z,19
2023-04-02T04:43:45.886Z,19
2023-04-02T04:44:55.409Z,19
2023-04-02T04:46:02.252Z,19
2023-04-02T04:47:09.058Z,19
2023-04-02T04:48:18.616Z,19
2023-04-02T04:49:28.542Z,18
2023-04-02T04:50:43.151Z,18
2023-04-02T04:51:52.562Z,18
2023-04-02T04:52:59.337Z,18
2023-04-02T04:54:09.275Z,19
2023-04-02T04:55:16.110Z,20
2023-04-02T04:56:27.882Z,19
2023-04-02T04:57:34.702Z,18
2023-04-02T04:58:41.513Z,19
2023-04-02T04:59:56.088Z,20
2023-04-02T05:01:08.000Z,19
2023-04-02T05:02:17.338Z,18
2023-04-02T05:03:27.001Z,19
2023-04-02T05:04:39.607Z,18
2023-04-02T05:05:46.410Z,19
2023-04-02T05:06:53.123Z,17
2023-04-02T05:08:10.010Z,18
2023-04-02T05:09:16.776Z,18
2023-04-02T05:10:33.841Z,16
2023-04-02T05:11:40.684Z,13
2023-04-02T05:12:47.554Z,14
2023-04-02T05:13:54.354Z,11
2023-04-02T05:15:01.130Z,10
2023-04-02T05:16:08.185Z,11
2023-04-02T05:17:19.995Z,8
2023-04-02T05:18:31.878Z,6
2023-04-02T05:19:43.775Z,6
2023-04-02T05:20:53.109Z,6
2023-04-02T05:22:10.049Z,6
2023-04-02T05:23:19.509Z,6
2023-04-02T05:24:31.893Z,5
2023-04-02T05:25:44.631Z,5
2023-04-02T05:26:59.372Z,5
2023-04-02T05:28:06.177Z,5
2023-04-02T05:29:23.239Z,5
2023-04-02T05:30:30.044Z,5
2023-04-02T05:31:44.718Z,4
2023-04-02T05:33:01.775Z,4
2023-04-02T05:34:08.549Z,4
2023-04-02T05:35:15.387Z,4
2023-04-02T05:36:22.318Z,4
2023-04-02T05:37:29.088Z,3
2023-04-02T05:38:35.911Z,3
2023-04-02T05:39:42.693Z,3
2023-04-02T05:40:49.454Z,3
2023-04-02T05:42:06.385Z,3
2023-04-02T05:43:13.194Z,3
2023-04-02T05:44:20.047Z,3
2023-04-02T05:45:34.960Z,3
2023-04-02T05:46:41.608Z,3
2023-04-02T05:47:58.464Z,3
2023-04-02T05:49:05.204Z,3
2023-04-02T05:50:12.045Z,3
2023-04-02T05:51:24.741Z,3
2023-04-02T05:52:34.118Z,3
2023-04-02T05:53:41.112Z,2
2023-04-02T05:54:52.968Z,2
2023-04-02T05:55:59.853Z,3
2023-04-02T05:57:16.831Z,2
2023-04-02T05:59:38.136Z,2
2023-04-02T06:00:44.879Z,2
2023-04-02T06:01:54.678Z,2
2023-04-02T06:03:14.543Z,2
2023-04-02T06:04:31.393Z,2
2023-04-02T06:05:38.219Z,2
2023-04-02T06:06:44.970Z,2
2023-04-02T06:07:54.778Z,2
2023-04-02T06:09:07.698Z,2
2023-04-02T06:10:14.507Z,2
2023-04-02T06:11:21.265Z,2
2023-04-02T06:12:31.118Z,2
2023-04-02T06:13:47.994Z,2
2023-04-02T06:14:54.732Z,2
2023-04-02T06:16:01.567Z,2
2023-04-02T06:17:08.539Z,1
2023-04-02T06:18:18.249Z,2
2023-04-02T06:19:27.721Z,2
2023-04-02T06:20:36.792Z,1
2023-04-02T06:21:44.754Z,1
2023-04-02T06:22:51.577Z,2
2023-04-02T06:24:01.094Z,2
2023-04-02T06:25:08.038Z,2
2023-04-02T06:26:19.807Z,2
2023-04-02T06:27:34.705Z,2
2023-04-02T06:28:41.662Z,2
2023-04-02T06:29:48.512Z,3
2023-04-02T06:30:55.312Z,4
2023-04-02T06:32:02.112Z,4
2023-04-02T06:33:11.681Z,5
2023-04-02T06:34:18.507Z,4
2023-04-02T06:35:25.447Z,6
2023-04-02T06:36:32.209Z,11
2023-04-02T06:37:39.096Z,10
2023-04-02T06:38:45.860Z,7
2023-04-02T06:39:52.615Z,4
2023-04-02T06:40:59.530Z,2
2023-04-02T06:42:06.412Z,2
2023-04-02T06:43:16.360Z,1
2023-04-02T06:44:33.217Z,1
2023-04-02T06:45:40.096Z,1
2023-04-02T06:46:47.017Z,1
2023-04-02T06:47:53.794Z,1
2023-04-02T06:49:00.628Z,1
2023-04-02T06:50:12.422Z,1
2023-04-02T06:51:22.090Z,1
2023-04-02T06:52:28.898Z,1
2023-04-02T06:53:38.462Z,1
2023-04-02T06:54:48.225Z,2
2023-04-02T06:55:54.974Z,2
2023-04-02T06:57:01.800Z,2
2023-04-02T06:58:08.655Z,2
2023-04-02T06:59:15.451Z,2
2023-04-02T07:00:22.431Z,2
2023-04-02T07:01:39.430Z,2
2023-04-02T07:02:46.379Z,2
2023-04-02T07:03:53.908Z,2
2023-04-02T07:05:01.087Z,1
2023-04-02T07:06:08.005Z,3
2023-04-02T07:07:17.603Z,2
2023-04-02T07:08:24.370Z,3
2023-04-02T07:09:31.216Z,3
2023-04-02T07:10:37.974Z,2
2023-04-02T07:11:44.725Z,2
2023-04-02T07:12:51.544Z,1
2023-04-02T07:13:58.628Z,1
2023-04-02T07:15:05.572Z,1
2023-04-02T07:16:12.804Z,1
2023-04-02T07:17:19.519Z,1
2023-04-02T07:18:26.243Z,1
2023-04-02T07:19:33.048Z,1
2023-04-02T07:20:39.887Z,1
2023-04-02T07:21:46.843Z,1
2023-04-02T07:22:53.673Z,1
2023-04-02T07:24:00.454Z,1
2023-04-02T07:25:07.408Z,1
2023-04-02T07:26:14.225Z,1
2023-04-02T07:27:21.079Z,1
2023-04-02T07:28:27.888Z,1
2023-04-02T07:29:34.733Z,1
2023-04-02T07:30:41.522Z,1
2023-04-02T07:31:48.401Z,2
2023-04-02T07:32:55.241Z,2
2023-04-02T07:34:02.044Z,1
2023-04-02T07:35:08.914Z,2
2023-04-02T07:36:15.713Z,2
2023-04-02T07:37:22.494Z,2
2023-04-02T07:38:29.403Z,1
2023-04-02T07:39:37.896Z,1
2023-04-02T07:40:43.054Z,1
2023-04-02T07:41:49.812Z,1
2023-04-02T07:42:56.552Z,1
2023-04-02T07:44:03.367Z,1
2023-04-02T07:45:10.128Z,1
2023-04-02T07:46:17.016Z,1
2023-04-02T07:47:23.700Z,1
2023-04-02T07:48:30.498Z,1
2023-04-02T07:49:37.319Z,1
2023-04-02T07:50:44.105Z,1
2023-04-02T07:51:51.028Z,1
2023-04-02T07:52:57.989Z,1
2023-04-02T07:54:04.844Z,1
2023-04-02T07:55:11.692Z,1
2023-04-02T07:56:18.484Z,1
2023-04-02T07:57:25.342Z,1
2023-04-02T07:58:32.078Z,1
2023-04-02T07:59:38.907Z,1
2023-04-02T08:00:45.715Z,2
2023-04-02T08:01:52.641Z,2
2023-04-02T08:02:59.470Z,2
2023-04-02T08:04:06.215Z,1
2023-04-02T08:05:18.106Z,1
2023-04-02T08:06:24.914Z,1
2023-04-02T08:07:31.636Z,1
2023-04-02T08:08:38.436Z,1
2023-04-02T08:09:45.303Z,1
2023-04-02T08:10:52.115Z,1
2023-04-02T08:11:58.926Z,1
2023-04-02T08:13:05.735Z,1
2023-04-02T08:14:12.502Z,1
2023-04-02T08:15:19.314Z,1
2023-04-02T08:16:26.049Z,1
2023-04-02T08:17:32.866Z,1
2023-04-02T08:18:39.605Z,1
2023-04-02T08:19:54.589Z,1
2023-04-02T08:20:53.457Z,1
2023-04-02T08:22:00.266Z,1
2023-04-02T08:23:07.027Z,1
2023-04-02T08:24:16.483Z,1
2023-04-02T08:25:23.309Z,1
2023-04-02T08:26:30.078Z,2
2023-04-02T08:27:36.838Z,1
2023-04-02T08:28:43.655Z,1
2023-04-02T08:29:50.350Z,2
2023-04-02T08:30:57.202Z,3
2023-04-02T08:32:03.883Z,2
2023-04-02T08:33:10.728Z,2
2023-04-02T08:34:17.430Z,2
2023-04-02T08:35:24.211Z,4
2023-04-02T08:36:30.990Z,12
2023-04-02T08:37:37.747Z,3
2023-04-02T08:38:44.608Z,40
2023-04-02T08:39:51.327Z,12
2023-04-02T08:40:58.107Z,4
2023-04-02T08:42:04.917Z,2
2023-04-02T08:43:23.519Z,2
2023-04-02T08:44:36.499Z,2
2023-04-02T08:45:45.996Z,2
2023-04-02T08:46:57.846Z,3
2023-04-02T08:48:07.642Z,1
2023-04-02T08:49:14.379Z,2
2023-04-02T08:50:21.218Z,2
2023-04-02T08:51:38.083Z,2
2023-04-02T08:52:44.832Z,3
2023-04-02T08:53:51.617Z,2
2023-04-02T08:55:03.511Z,2
2023-04-02T08:56:15.380Z,2
2023-04-02T08:57:27.296Z,2
2023-04-02T08:58:42.136Z,2
2023-04-02T08:59:51.776Z,2
2023-04-02T09:01:03.732Z,3
2023-04-02T09:02:10.619Z,3
2023-04-02T09:03:20.193Z,3
2023-04-02T09:04:32.020Z,2
2023-04-02T09:05:38.849Z,3
2023-04-02T09:06:45.612Z,2
2023-04-02T09:07:52.439Z,2
2023-04-02T09:08:59.143Z,2
2023-04-02T09:10:05.977Z,2
2023-04-02T09:11:20.825Z,3
2023-04-02T09:12:27.590Z,3
2023-04-02T09:13:34.339Z,3
2023-04-02T09:14:41.195Z,3
2023-04-02T09:15:48.047Z,3
2023-04-02T09:16:54.667Z,4
2023-04-02T09:18:07.160Z,4
2023-04-02T09:19:16.899Z,4
2023-04-02T09:20:26.287Z,4
2023-04-02T09:21:33.005Z,4
2023-04-02T09:22:39.827Z,3
2023-04-02T09:23:46.519Z,3
2023-04-02T09:24:53.347Z,4
2023-04-02T09:26:04.744Z,5
2023-04-02T09:27:20.302Z,5
2023-04-02T09:28:27.183Z,5
2023-04-02T09:29:33.946Z,5
2023-04-02T09:30:46.944Z,4
2023-04-02T09:32:03.897Z,6
2023-04-02T09:33:20.819Z,5
2023-04-02T09:34:37.739Z,5
2023-04-02T09:35:44.611Z,5
2023-04-02T09:36:54.138Z,6
2023-04-02T09:38:00.996Z,7
2023-04-02T09:39:10.586Z,7
2023-04-02T09:40:22.540Z,7
2023-04-02T09:41:29.399Z,8
2023-04-02T09:42:36.189Z,9
2023-04-02T09:43:42.967Z,8
2023-04-02T09:44:49.812Z,8
2023-04-02T09:45:56.597Z,7
2023-04-02T09:47:13.607Z,7
2023-04-02T09:48:26.292Z,9
2023-04-02T09:49:38.759Z,8
2023-04-02T09:50:45.561Z,8
2023-04-02T09:51:52.390Z,8
2023-04-02T09:53:09.480Z,9
2023-04-02T09:54:21.340Z,8
2023-04-02T09:55:28.107Z,7
2023-04-02T09:56:34.821Z,8
2023-04-02T09:57:41.730Z,7
2023-04-02T09:58:48.546Z,7
2023-04-02T10:00:05.469Z,7
2023-04-02T10:01:17.621Z,7
2023-04-02T10:02:29.509Z,6
2023-04-02T10:03:36.337Z,6
2023-04-02T10:04:43.261Z,6
2023-04-02T10:05:49.966Z,6
2023-04-02T10:07:01.789Z,7
2023-04-02T10:08:08.696Z,5
2023-04-02T10:09:18.324Z,6
2023-04-02T10:10:30.344Z,8
2023-04-02T10:11:46.515Z,12
2023-04-02T10:12:46.875Z,47
2023-04-02T10:14:01.636Z,24
2023-04-02T10:15:13.573Z,42
2023-04-02T10:16:20.536Z,89
2023-04-02T10:17:32.376Z,41
2023-04-02T10:18:39.233Z,9
2023-04-02T10:19:53.876Z,8
2023-04-02T10:21:05.692Z,6
2023-04-02T10:22:12.514Z,6
2023-04-02T10:23:19.400Z,9
2023-04-02T10:24:26.190Z,10
2023-04-02T10:25:32.962Z,6
2023-04-02T10:26:39.711Z,14
2023-04-02T10:27:46.476Z,13
2023-04-02T10:29:05.003Z,8
2023-04-02T10:30:15.235Z,5
2023-04-02T10:31:27.133Z,6
2023-04-02T10:32:41.555Z,6
2023-04-02T10:33:58.432Z,5
2023-04-02T10:35:08.132Z,5
2023-04-02T10:36:17.817Z,6
2023-04-02T10:37:29.594Z,5
2023-04-02T10:38:41.413Z,6
2023-04-02T10:39:56.072Z,6
2023-04-02T10:41:10.908Z,5
2023-04-02T10:42:23.662Z,5
2023-04-02T10:43:38.352Z,5
2023-04-02T10:44:50.221Z,5
2023-04-02T10:46:02.336Z,6
2023-04-02T10:47:19.201Z,5
2023-04-02T10:48:25.922Z,8
2023-04-02T10:49:42.843Z,6
2023-04-02T10:50:57.468Z,7
2023-04-02T10:52:04.353Z,7
2023-04-02T10:53:13.778Z,9
2023-04-02T10:54:20.530Z,8
2023-04-02T10:55:32.607Z,6
2023-04-02T10:56:48.262Z,6
2023-04-02T10:57:45.976Z,7
2023-04-02T10:58:53.059Z,6
2023-04-02T11:00:04.699Z,5
2023-04-02T11:01:11.846Z,6
2023-04-02T11:02:18.719Z,5
2023-04-02T11:03:28.154Z,5
2023-04-02T11:04:40.110Z,5
2023-04-02T11:05:47.176Z,4
2023-04-02T11:07:00.808Z,7
2023-04-02T11:08:04.277Z,6
2023-04-02T11:09:19.086Z,5
2023-04-02T11:10:28.916Z,5
2023-04-02T11:11:35.968Z,5
2023-04-02T11:12:42.871Z,4
2023-04-02T11:13:49.725Z,5
2023-04-02T11:15:02.270Z,5
2023-04-02T11:16:09.371Z,5
2023-04-02T11:17:16.116Z,6
2023-04-02T11:18:22.872Z,5
2023-04-02T11:19:32.618Z,6
2023-04-02T11:20:39.884Z,5
2023-04-02T11:21:58.462Z,5
2023-04-02T11:23:03.956Z,6
2023-04-02T11:24:13.640Z,5
2023-04-02T11:25:28.147Z,6
2023-04-02T11:26:34.930Z,4
2023-04-02T11:27:47.285Z,5
2023-04-02T11:28:54.025Z,4
2023-04-02T11:30:03.703Z,3
2023-04-02T11:31:10.783Z,4
2023-04-02T11:32:17.550Z,4
2023-04-02T11:33:30.118Z,5
2023-04-02T11:34:34.096Z,5
2023-04-02T11:35:43.872Z,9
2023-04-02T11:36:50.670Z,8
2023-04-02T11:37:57.487Z,13
2023-04-02T11:39:17.232Z,9
2023-04-02T11:40:24.137Z,8
2023-04-02T11:41:35.933Z,7
2023-04-02T11:42:52.989Z,7
2023-04-02T11:43:59.924Z,5
2023-04-02T11:45:06.708Z,7
2023-04-02T11:46:21.398Z,7
2023-04-02T11:47:33.243Z,5
2023-04-02T11:48:40.150Z,4
2023-04-02T11:49:46.881Z,5
2023-04-02T11:50:58.813Z,4
2023-04-02T11:52:18.737Z,4
2023-04-02T11:53:28.565Z,6
2023-04-02T11:54:35.345Z,6
2023-04-02T11:55:42.178Z,6
2023-04-02T11:56:56.789Z,6
2023-04-02T11:58:03.656Z,6
2023-04-02T11:59:20.740Z,5
2023-04-02T12:00:35.597Z,5
2023-04-02T12:01:52.288Z,5
2023-04-02T12:03:07.114Z,5
2023-04-02T12:04:23.999Z,6
2023-04-02T12:05:41.096Z,5
2023-04-02T12:06:58.055Z,5
2023-04-02T12:08:12.646Z,6
2023-04-02T12:09:22.373Z,7
2023-04-02T12:10:31.800Z,7
2023-04-02T12:11:43.676Z,8
2023-04-02T12:12:50.468Z,7
2023-04-02T12:13:57.360Z,7
2023-04-02T12:15:04.215Z,7
2023-04-02T12:16:16.285Z,7
2023-04-02T12:17:23.098Z,8
2023-04-02T12:18:38.179Z,7
2023-04-02T12:19:45.077Z,6
2023-04-02T12:20:57.330Z,6
2023-04-02T12:22:04.350Z,7
2023-04-02T12:23:11.216Z,8
2023-04-02T12:24:25.878Z,8
2023-04-02T12:25:32.810Z,7
2023-04-02T12:26:39.684Z,7
2023-04-02T12:27:46.467Z,7
2023-04-02T12:29:03.395Z,8
2023-04-02T12:30:20.377Z,9
2023-04-02T12:31:27.186Z,8
2023-04-02T12:32:34.005Z,8
2023-04-02T12:33:40.898Z,8
2023-04-02T12:35:20.532Z,7
2023-04-02T12:36:33.264Z,8
2023-04-02T12:37:40.085Z,7
2023-04-02T12:38:46.902Z,6
2023-04-02T12:39:53.824Z,6
2023-04-02T12:41:03.766Z,7
2023-04-02T12:42:10.567Z,7
2023-04-02T12:43:27.568Z,7
2023-04-02T12:44:37.190Z,7
2023-04-02T12:45:43.999Z,7
2023-04-02T12:46:50.799Z,7
2023-04-02T12:47:57.658Z,8
2023-04-02T12:49:04.502Z,7
2023-04-02T12:50:11.327Z,6
2023-04-02T12:51:18.262Z,7
2023-04-02T12:52:25.032Z,7
2023-04-02T12:53:32.627Z,5
2023-04-02T12:54:39.587Z,5
2023-04-02T12:55:51.582Z,6
2023-04-02T12:56:58.635Z,6
2023-04-02T12:58:15.498Z,7
2023-04-02T12:59:30.511Z,7
2023-04-02T13:00:37.521Z,7
2023-04-02T13:01:44.307Z,9
2023-04-02T13:02:58.970Z,8
2023-04-02T13:04:10.714Z,6
2023-04-02T13:05:17.476Z,7
2023-04-02T13:06:34.419Z,6
2023-04-02T13:07:41.176Z,7
2023-04-02T13:08:47.964Z,7
2023-04-02T13:09:54.739Z,7
2023-04-02T13:11:01.731Z,6
2023-04-02T13:12:08.554Z,7
2023-04-02T13:13:25.531Z,6
2023-04-02T13:14:39.997Z,6
2023-04-02T13:15:46.826Z,6
2023-04-02T13:17:03.831Z,6
2023-04-02T13:18:10.662Z,5
2023-04-02T13:19:20.168Z,6
2023-04-02T13:20:27.001Z,6
2023-04-02T13:21:36.297Z,6
2023-04-02T13:22:43.242Z,6
2023-04-02T13:23:50.096Z,5
2023-04-02T13:24:56.952Z,6
2023-04-02T13:26:03.676Z,7
2023-04-02T13:27:20.567Z,8
2023-04-02T13:28:27.457Z,7
2023-04-02T13:29:34.446Z,6
2023-04-02T13:30:41.195Z,7
2023-04-02T13:31:48.042Z,6
2023-04-02T13:32:54.869Z,6
2023-04-02T13:34:01.696Z,6
2023-04-02T13:35:08.450Z,7
2023-04-02T13:36:15.314Z,6
2023-04-02T13:37:22.144Z,6
2023-04-02T13:38:28.893Z,6
2023-04-02T13:39:35.644Z,7
2023-04-02T13:40:42.534Z,6
2023-04-02T13:41:49.303Z,6
2023-04-02T13:42:58.957Z,6
2023-04-02T13:44:05.759Z,5
2023-04-02T13:45:12.548Z,7
2023-04-02T13:46:27.266Z,6
2023-04-02T13:47:34.044Z,6
2023-04-02T13:48:40.841Z,6
2023-04-02T13:49:47.620Z,6
2023-04-02T13:50:54.426Z,5
2023-04-02T13:52:01.232Z,6
2023-04-02T13:53:10.353Z,7
2023-04-02T13:54:22.841Z,6
2023-04-02T13:55:29.649Z,6
2023-04-02T13:56:39.555Z,6
2023-04-02T13:57:46.282Z,6
2023-04-02T13:58:53.072Z,6
2023-04-02T13:59:59.862Z,7
2023-04-02T14:01:06.852Z,6
2023-04-02T14:02:13.708Z,7
2023-04-02T14:03:20.408Z,7
2023-04-02T14:04:27.257Z,7
2023-04-02T14:05:34.101Z,6
2023-04-02T14:06:48.930Z,7
2023-04-02T14:08:01.747Z,6
2023-04-02T14:09:16.322Z,7
2023-04-02T14:10:25.817Z,7
2023-04-02T14:11:32.654Z,7
2023-04-02T14:12:45.275Z,7
2023-04-02T14:14:02.268Z,7
2023-04-02T14:15:12.066Z,6
2023-04-02T14:16:28.992Z,7
2023-04-02T14:17:43.957Z,7
2023-04-02T14:19:00.817Z,6
2023-04-02T14:20:15.438Z,6
2023-04-02T14:21:27.370Z,7
2023-04-02T14:22:39.330Z,7
2023-04-02T14:23:54.025Z,8
2023-04-02T14:25:10.922Z,7
2023-04-02T14:26:25.285Z,6
2023-04-02T14:27:39.047Z,7
2023-04-02T14:28:43.984Z,7
2023-04-02T14:29:56.464Z,7
2023-04-02T14:31:08.256Z,7
2023-04-02T14:32:25.226Z,8
2023-04-02T14:33:34.708Z,8
2023-04-02T14:34:51.671Z,9
2023-04-02T14:36:03.515Z,9
2023-04-02T14:37:13.823Z,8
2023-04-02T14:38:30.167Z,8
2023-04-02T14:39:36.988Z,8
2023-04-02T14:40:46.500Z,8
2023-04-02T14:41:53.323Z,8
2023-04-02T14:43:05.161Z,7
2023-04-02T14:44:22.108Z,7
2023-04-02T14:45:28.942Z,8
2023-04-02T14:46:37.447Z,7
2023-04-02T14:47:42.666Z,8
2023-04-02T14:48:49.521Z,9
2023-04-02T14:49:58.977Z,8
2023-04-02T14:51:05.760Z,7
2023-04-02T14:52:17.596Z,7
2023-04-02T14:53:24.377Z,8
2023-04-02T14:54:33.711Z,9
2023-04-02T14:55:45.533Z,8
2023-04-02T14:56:52.539Z,7
2023-04-02T14:58:02.165Z,9
2023-04-02T14:59:08.962Z,10
2023-04-02T15:00:20.900Z,11
2023-04-02T15:01:32.831Z,13
2023-04-02T15:02:39.664Z,13
2023-04-02T15:03:49.215Z,10
2023-04-02T15:05:01.663Z,8
2023-04-02T15:06:18.080Z,8
2023-04-02T15:07:27.685Z,8
2023-04-02T15:08:37.003Z,8
2023-04-02T15:09:48.815Z,9
2023-04-02T15:11:03.696Z,10
2023-04-02T15:12:12.539Z,10
2023-04-02T15:13:22.405Z,9
2023-04-02T15:14:34.914Z,9
2023-04-02T15:15:41.788Z,9
2023-04-02T15:16:56.736Z,8
2023-04-02T15:18:03.698Z,9
2023-04-02T15:19:15.938Z,8
2023-04-02T15:20:22.777Z,9
2023-04-02T15:21:29.648Z,9
2023-04-02T15:22:44.173Z,10
2023-04-02T15:23:56.015Z,10
2023-04-02T15:25:05.569Z,9
2023-04-02T15:26:22.553Z,9
2023-04-02T15:27:37.166Z,9
2023-04-02T15:28:54.084Z,9
2023-04-02T15:30:00.953Z,7
2023-04-02T15:31:15.651Z,7
2023-04-02T15:32:22.565Z,7
2023-04-02T15:33:37.159Z,9
2023-04-02T15:34:47.218Z,7
2023-04-02T15:36:04.096Z,8
2023-04-02T15:37:21.023Z,8
2023-04-02T15:38:32.914Z,8
2023-04-02T15:39:44.758Z,9
2023-04-02T15:40:56.545Z,9
2023-04-02T15:42:08.533Z,9
2023-04-02T15:43:25.443Z,10
2023-04-02T15:44:32.275Z,8
2023-04-02T15:45:39.295Z,11
2023-04-02T15:46:53.640Z,10
2023-04-02T15:48:10.585Z,10
2023-04-02T15:49:27.554Z,8
2023-04-02T15:50:42.836Z,8
2023-04-02T15:51:56.470Z,10
2023-04-02T15:53:10.913Z,10
2023-04-02T15:54:22.746Z,9
2023-04-02T15:55:34.628Z,10
2023-04-02T15:56:41.444Z,9
2023-04-02T15:57:55.913Z,9
2023-04-02T15:59:08.166Z,9
2023-04-02T16:00:15.123Z,8
2023-04-02T16:01:27.132Z,8
2023-04-02T16:02:38.980Z,9
2023-04-02T16:03:53.620Z,8
2023-04-02T16:05:08.283Z,9
2023-04-02T16:06:18.070Z,9
2023-04-02T16:07:30.017Z,10
2023-04-02T16:08:41.937Z,8
2023-04-02T16:09:58.880Z,9
2023-04-02T16:11:13.386Z,8
2023-04-02T16:12:20.333Z,9
2023-04-02T16:13:27.251Z,9
2023-04-02T16:14:37.002Z,9
2023-04-02T16:15:43.758Z,7
2023-04-02T16:16:58.721Z,8
2023-04-02T16:18:08.355Z,8
2023-04-02T16:19:17.963Z,7
2023-04-02T16:20:35.173Z,7
2023-04-02T16:21:44.364Z,7
2023-04-02T16:23:00.361Z,7
2023-04-02T16:24:06.048Z,7
2023-04-02T16:25:12.819Z,8
2023-04-02T16:26:19.630Z,9
2023-04-02T16:27:29.375Z,9
2023-04-02T16:28:36.207Z,9
2023-04-02T16:29:51.340Z,9
2023-04-02T16:30:54.983Z,9
2023-04-02T16:32:06.741Z,7
2023-04-02T16:33:21.133Z,8
2023-04-02T16:34:33.031Z,8
2023-04-02T16:35:47.972Z,8
2023-04-02T16:36:54.757Z,8
2023-04-02T16:38:04.430Z,7
2023-04-02T16:39:21.374Z,7
2023-04-02T16:40:35.913Z,7
2023-04-02T16:41:47.676Z,10
2023-04-02T16:43:02.372Z,9
2023-04-02T16:44:19.338Z,8
2023-04-02T16:45:31.160Z,8
2023-04-02T16:46:48.126Z,9
2023-04-02T16:48:00.828Z,9
2023-04-02T16:49:12.675Z,9
2023-04-02T16:50:22.395Z,8
2023-04-02T16:51:34.231Z,8
2023-04-02T16:52:51.225Z,7
2023-04-02T16:54:02.373Z,7
2023-04-02T16:55:18.219Z,7
2023-04-02T16:56:30.084Z,6